sensor_id;sensor_type;location;lat;lon;timestamp;P1;durP1;ratioP1;P2;durP2;ratioP2
39778;SDS011;25454;49.878;8.618;2022-11-03T00:01:46;8.67;;;5.27;;
39778;SDS011;25454;49.878;8.618;2022-11-03T00:06:50;11.03;;;5.87;;
39778;SDS011;25454;49.878;8.618;2022-11-03T00:11:52;10.17;;;5.80;;
39778;SDS011;25454;49.878;8.618;2022-11-03T00:16:52;9.53;;;5.50;;
39778;SDS011;25454;49.878;8.618;2022-11-03T00:21:53;10.87;;;6.70;;
39778;SDS011;25454;49.878;8.618;2022-11-03T00:26:54;11.80;;;5.50;;
39778;SDS011;25454;49.878;8.618;2022-11-03T00:31:54;10.07;;;6.20;;
39778;SDS011;25454;49.878;8.618;2022-11-03T00:36:55;10.43;;;5.20;;
39778;SDS011;25454;49.878;8.618;2022-11-03T00:41:55;7.53;;;4.93;;
39778;SDS011;25454;49.878;8.618;2022-11-03T00:46:56;9.90;;;5.40;;
39778;SDS011;25454;49.878;8.618;2022-11-03T00:51:56;11.50;;;6.00;;
39778;SDS011;25454;49.878;8.618;2022-11-03T00:56:57;12.73;;;6.20;;
39778;SDS011;25454;49.878;8.618;2022-11-03T01:01:57;9.67;;;5.80;;
39778;SDS011;25454;49.878;8.618;2022-11-03T01:06:58;12.27;;;6.00;;
39778;SDS011;25454;49.878;8.618;2022-11-03T01:17:18;10.07;;;5.30;;
39778;SDS011;25454;49.878;8.618;2022-11-03T01:22:23;8.97;;;5.50;;
39778;SDS011;25454;49.878;8.618;2022-11-03T01:27:24;10.40;;;5.20;;
39778;SDS011;25454;49.878;8.618;2022-11-03T01:32:24;11.87;;;5.50;;
39778;SDS011;25454;49.878;8.618;2022-11-03T01:37:25;12.10;;;5.77;;
39778;SDS011;25454;49.878;8.618;2022-11-03T01:42:25;11.87;;;5.37;;
39778;SDS011;25454;49.878;8.618;2022-11-03T01:47:32;9.80;;;5.17;;
39778;SDS011;25454;49.878;8.618;2022-11-03T01:57:38;11.20;;;5.60;;
39778;SDS011;25454;49.878;8.618;2022-11-03T02:02:45;9.10;;;4.80;;
39778;SDS011;25454;49.878;8.618;2022-11-03T02:07:51;9.37;;;5.00;;
39778;SDS011;25454;49.878;8.618;2022-11-03T02:13:01;9.80;;;4.90;;
39778;SDS011;25454;49.878;8.618;2022-11-03T02:18:09;8.33;;;4.63;;
39778;SDS011;25454;49.878;8.618;2022-11-03T02:23:16;8.60;;;4.37;;
39778;SDS011;25454;49.878;8.618;2022-11-03T02:28:17;10.80;;;4.57;;
39778;SDS011;25454;49.878;8.618;2022-11-03T02:38:25;8.33;;;4.30;;
39778;SDS011;25454;49.878;8.618;2022-11-03T02:43:28;8.47;;;4.20;;
39778;SDS011;25454;49.878;8.618;2022-11-03T02:48:29;10.10;;;4.70;;
39778;SDS011;25454;49.878;8.618;2022-11-03T02:53:30;8.00;;;4.53;;
39778;SDS011;25454;49.878;8.618;2022-11-03T02:58:40;7.50;;;4.70;;
39778;SDS011;25454;49.878;8.618;2022-11-03T03:04:00;12.10;;;5.30;;
39778;SDS011;25454;49.878;8.618;2022-11-03T03:09:06;8.10;;;5.23;;
39778;SDS011;25454;49.878;8.618;2022-11-03T03:14:32;18.00;;;9.80;;
39778;SDS011;25454;49.878;8.618;2022-11-03T03:19:39;10.50;;;5.40;;
39778;SDS011;25454;49.878;8.618;2022-11-03T03:30:03;6.57;;;4.10;;
39778;SDS011;25454;49.878;8.618;2022-11-03T03:35:09;9.00;;;4.17;;
39778;SDS011;25454;49.878;8.618;2022-11-03T03:40:18;11.03;;;4.17;;
39778;SDS011;25454;49.878;8.618;2022-11-03T03:45:23;9.67;;;4.30;;
39778;SDS011;25454;49.878;8.618;2022-11-03T03:50:25;8.70;;;4.23;;
39778;SDS011;25454;49.878;8.618;2022-11-03T03:55:35;6.23;;;3.90;;
39778;SDS011;25454;49.878;8.618;2022-11-03T04:00:37;8.80;;;3.80;;
39778;SDS011;25454;49.878;8.618;2022-11-03T04:05:41;9.40;;;4.13;;
39778;SDS011;25454;49.878;8.618;2022-11-03T04:10:42;8.50;;;4.07;;
39778;SDS011;25454;49.878;8.618;2022-11-03T04:16:03;5.73;;;3.60;;
39778;SDS011;25454;49.878;8.618;2022-11-03T04:21:23;9.07;;;4.17;;
39778;SDS011;25454;49.878;8.618;2022-11-03T04:26:42;5.43;;;3.50;;
39778;SDS011;25454;49.878;8.618;2022-11-03T04:31:43;8.10;;;3.70;;
39778;SDS011;25454;49.878;8.618;2022-11-03T04:36:43;9.07;;;4.03;;
39778;SDS011;25454;49.878;8.618;2022-11-03T04:41:44;7.17;;;3.60;;
39778;SDS011;25454;49.878;8.618;2022-11-03T04:46:45;6.10;;;3.57;;
39778;SDS011;25454;49.878;8.618;2022-11-03T04:51:45;5.97;;;3.20;;
39778;SDS011;25454;49.878;8.618;2022-11-03T04:56:47;7.03;;;3.80;;
39778;SDS011;25454;49.878;8.618;2022-11-03T05:01:48;5.90;;;4.07;;
39778;SDS011;25454;49.878;8.618;2022-11-03T05:06:49;9.47;;;4.13;;
39778;SDS011;25454;49.878;8.618;2022-11-03T05:11:51;6.60;;;3.60;;
39778;SDS011;25454;49.878;8.618;2022-11-03T05:16:53;8.90;;;4.33;;
39778;SDS011;25454;49.878;8.618;2022-11-03T05:21:55;9.23;;;4.07;;
39778;SDS011;25454;49.878;8.618;2022-11-03T05:26:58;6.33;;;3.80;;
39778;SDS011;25454;49.878;8.618;2022-11-03T05:31:59;11.47;;;4.67;;
39778;SDS011;25454;49.878;8.618;2022-11-03T05:37:23;10.37;;;4.47;;
39778;SDS011;25454;49.878;8.618;2022-11-03T05:47:23;9.57;;;4.20;;
39778;SDS011;25454;49.878;8.618;2022-11-03T05:52:30;8.07;;;3.80;;
39778;SDS011;25454;49.878;8.618;2022-11-03T05:57:30;9.93;;;4.50;;
39778;SDS011;25454;49.878;8.618;2022-11-03T06:02:37;8.97;;;4.00;;
39778;SDS011;25454;49.878;8.618;2022-11-03T06:07:39;9.70;;;3.53;;
39778;SDS011;25454;49.878;8.618;2022-11-03T06:12:39;11.90;;;3.80;;
39778;SDS011;25454;49.878;8.618;2022-11-03T06:17:40;6.37;;;3.37;;
39778;SDS011;25454;49.878;8.618;2022-11-03T06:22:41;7.23;;;3.70;;
39778;SDS011;25454;49.878;8.618;2022-11-03T06:27:43;9.47;;;4.07;;
39778;SDS011;25454;49.878;8.618;2022-11-03T06:32:46;10.87;;;4.17;;
39778;SDS011;25454;49.878;8.618;2022-11-03T06:37:47;10.27;;;4.60;;
39778;SDS011;25454;49.878;8.618;2022-11-03T06:42:50;14.83;;;5.30;;
39778;SDS011;25454;49.878;8.618;2022-11-03T06:47:53;8.50;;;4.87;;
39778;SDS011;25454;49.878;8.618;2022-11-03T06:52:54;10.17;;;4.93;;
39778;SDS011;25454;49.878;8.618;2022-11-03T06:58:29;13.53;;;6.00;;
39778;SDS011;25454;49.878;8.618;2022-11-03T07:03:35;13.57;;;6.13;;
39778;SDS011;25454;49.878;8.618;2022-11-03T07:08:53;15.97;;;5.73;;
39778;SDS011;25454;49.878;8.618;2022-11-03T07:14:20;15.80;;;6.67;;
39778;SDS011;25454;49.878;8.618;2022-11-03T07:24:43;13.23;;;6.60;;
39778;SDS011;25454;49.878;8.618;2022-11-03T07:29:46;13.33;;;5.93;;
39778;SDS011;25454;49.878;8.618;2022-11-03T07:34:48;14.53;;;5.53;;
39778;SDS011;25454;49.878;8.618;2022-11-03T07:39:52;18.60;;;6.33;;
39778;SDS011;25454;49.878;8.618;2022-11-03T07:44:53;14.63;;;5.77;;
39778;SDS011;25454;49.878;8.618;2022-11-03T07:49:55;12.43;;;5.37;;
39778;SDS011;25454;49.878;8.618;2022-11-03T07:54:57;12.00;;;5.40;;
39778;SDS011;25454;49.878;8.618;2022-11-03T08:00:03;11.70;;;4.87;;
39778;SDS011;25454;49.878;8.618;2022-11-03T08:05:11;16.40;;;5.40;;
39778;SDS011;25454;49.878;8.618;2022-11-03T08:10:11;13.10;;;4.80;;
39778;SDS011;25454;49.878;8.618;2022-11-03T08:15:12;10.73;;;4.10;;
39778;SDS011;25454;49.878;8.618;2022-11-03T08:20:14;8.43;;;4.60;;
39778;SDS011;25454;49.878;8.618;2022-11-03T08:25:15;10.57;;;4.40;;
39778;SDS011;25454;49.878;8.618;2022-11-03T08:30:16;7.57;;;4.23;;
39778;SDS011;25454;49.878;8.618;2022-11-03T08:35:18;10.20;;;4.30;;
39778;SDS011;25454;49.878;8.618;2022-11-03T08:40:18;7.73;;;3.70;;
39778;SDS011;25454;49.878;8.618;2022-11-03T08:45:19;10.30;;;3.90;;
39778;SDS011;25454;49.878;8.618;2022-11-03T08:50:21;8.37;;;3.70;;
39778;SDS011;25454;49.878;8.618;2022-11-03T08:55:22;11.27;;;4.37;;
39778;SDS011;25454;49.878;8.618;2022-11-03T09:00:23;10.07;;;4.53;;
39778;SDS011;25454;49.878;8.618;2022-11-03T09:05:25;13.83;;;4.90;;
39778;SDS011;25454;49.878;8.618;2022-11-03T09:10:25;14.27;;;4.43;;
39778;SDS011;25454;49.878;8.618;2022-11-03T09:15:26;11.50;;;4.40;;
39778;SDS011;25454;49.878;8.618;2022-11-03T09:20:27;13.87;;;4.73;;
39778;SDS011;25454;49.878;8.618;2022-11-03T09:25:27;10.40;;;4.63;;
39778;SDS011;25454;49.878;8.618;2022-11-03T09:30:28;9.20;;;4.30;;
39778;SDS011;25454;49.878;8.618;2022-11-03T09:35:29;10.10;;;4.47;;
39778;SDS011;25454;49.878;8.618;2022-11-03T09:40:29;12.07;;;4.30;;
39778;SDS011;25454;49.878;8.618;2022-11-03T09:45:30;10.47;;;4.63;;
39778;SDS011;25454;49.878;8.618;2022-11-03T09:50:31;9.47;;;4.37;;
39778;SDS011;25454;49.878;8.618;2022-11-03T09:55:31;11.23;;;4.10;;
39778;SDS011;25454;49.878;8.618;2022-11-03T10:00:33;10.33;;;4.37;;
39778;SDS011;25454;49.878;8.618;2022-11-03T10:05:33;11.90;;;4.23;;
39778;SDS011;25454;49.878;8.618;2022-11-03T10:10:34;12.67;;;5.20;;
39778;SDS011;25454;49.878;8.618;2022-11-03T10:15:35;11.63;;;5.23;;
39778;SDS011;25454;49.878;8.618;2022-11-03T10:20:35;11.67;;;4.67;;
39778;SDS011;25454;49.878;8.618;2022-11-03T10:25:42;9.07;;;4.60;;
39778;SDS011;25454;49.878;8.618;2022-11-03T10:35:57;12.87;;;4.83;;
39778;SDS011;25454;49.878;8.618;2022-11-03T10:41:14;10.27;;;4.80;;
39778;SDS011;25454;49.878;8.618;2022-11-03T10:46:20;10.10;;;4.97;;
39778;SDS011;25454;49.878;8.618;2022-11-03T10:51:21;12.80;;;5.27;;
39778;SDS011;25454;49.878;8.618;2022-11-03T10:56:23;9.47;;;4.80;;
39778;SDS011;25454;49.878;8.618;2022-11-03T11:01:24;10.23;;;3.80;;
39778;SDS011;25454;49.878;8.618;2022-11-03T11:06:27;9.10;;;3.30;;
39778;SDS011;25454;49.878;8.618;2022-11-03T11:11:28;11.20;;;4.20;;
39778;SDS011;25454;49.878;8.618;2022-11-03T11:26:53;9.17;;;3.73;;
39778;SDS011;25454;49.878;8.618;2022-11-03T11:31:53;7.63;;;3.63;;
39778;SDS011;25454;49.878;8.618;2022-11-03T11:42:04;7.50;;;3.43;;
39778;SDS011;25454;49.878;8.618;2022-11-03T11:57:58;9.20;;;4.00;;
39778;SDS011;25454;49.878;8.618;2022-11-03T12:03:01;9.37;;;4.33;;
39778;SDS011;25454;49.878;8.618;2022-11-03T12:08:16;14.17;;;4.63;;
39778;SDS011;25454;49.878;8.618;2022-11-03T12:18:43;9.73;;;4.83;;
39778;SDS011;25454;49.878;8.618;2022-11-03T12:23:45;10.03;;;5.67;;
39778;SDS011;25454;49.878;8.618;2022-11-03T12:28:46;10.67;;;5.53;;
39778;SDS011;25454;49.878;8.618;2022-11-03T12:33:46;8.90;;;4.50;;
39778;SDS011;25454;49.878;8.618;2022-11-03T12:38:47;12.53;;;5.10;;
39778;SDS011;25454;49.878;8.618;2022-11-03T12:43:47;8.67;;;4.60;;
39778;SDS011;25454;49.878;8.618;2022-11-03T12:48:49;7.53;;;4.80;;
39778;SDS011;25454;49.878;8.618;2022-11-03T12:53:50;17.07;;;4.67;;
39778;SDS011;25454;49.878;8.618;2022-11-03T12:58:51;7.73;;;4.43;;
39778;SDS011;25454;49.878;8.618;2022-11-03T13:03:51;12.70;;;5.07;;
39778;SDS011;25454;49.878;8.618;2022-11-03T13:08:52;9.97;;;4.60;;
39778;SDS011;25454;49.878;8.618;2022-11-03T13:13:52;11.97;;;5.40;;
39778;SDS011;25454;49.878;8.618;2022-11-03T13:18:54;5.87;;;3.93;;
39778;SDS011;25454;49.878;8.618;2022-11-03T13:23:54;8.87;;;5.23;;
39778;SDS011;25454;49.878;8.618;2022-11-03T13:28:55;10.13;;;5.13;;
39778;SDS011;25454;49.878;8.618;2022-11-03T13:33:56;11.83;;;4.87;;
39778;SDS011;25454;49.878;8.618;2022-11-03T13:38:56;11.37;;;5.40;;
39778;SDS011;25454;49.878;8.618;2022-11-03T13:43:57;11.73;;;5.37;;
39778;SDS011;25454;49.878;8.618;2022-11-03T13:48:58;10.80;;;4.50;;
39778;SDS011;25454;49.878;8.618;2022-11-03T13:53:58;10.60;;;4.30;;
39778;SDS011;25454;49.878;8.618;2022-11-03T13:58:59;10.20;;;5.10;;
39778;SDS011;25454;49.878;8.618;2022-11-03T14:04:00;10.60;;;5.27;;
39778;SDS011;25454;49.878;8.618;2022-11-03T14:09:00;9.17;;;4.13;;
39778;SDS011;25454;49.878;8.618;2022-11-03T14:14:01;7.60;;;4.40;;
39778;SDS011;25454;49.878;8.618;2022-11-03T14:19:01;8.10;;;4.17;;
39778;SDS011;25454;49.878;8.618;2022-11-03T14:24:03;8.40;;;4.87;;
39778;SDS011;25454;49.878;8.618;2022-11-03T14:29:04;11.33;;;7.03;;
39778;SDS011;25454;49.878;8.618;2022-11-03T14:34:05;12.00;;;6.00;;
39778;SDS011;25454;49.878;8.618;2022-11-03T14:39:06;9.60;;;5.67;;
39778;SDS011;25454;49.878;8.618;2022-11-03T14:44:06;11.17;;;4.77;;
39778;SDS011;25454;49.878;8.618;2022-11-03T14:49:07;5.77;;;3.63;;
39778;SDS011;25454;49.878;8.618;2022-11-03T14:54:08;6.87;;;3.73;;
39778;SDS011;25454;49.878;8.618;2022-11-03T14:59:08;10.13;;;4.10;;
39778;SDS011;25454;49.878;8.618;2022-11-03T15:04:09;7.27;;;3.67;;
39778;SDS011;25454;49.878;8.618;2022-11-03T15:09:15;7.50;;;3.80;;
39778;SDS011;25454;49.878;8.618;2022-11-03T15:14:15;9.17;;;4.07;;
39778;SDS011;25454;49.878;8.618;2022-11-03T15:19:16;7.67;;;4.17;;
39778;SDS011;25454;49.878;8.618;2022-11-03T15:24:17;8.10;;;4.37;;
39778;SDS011;25454;49.878;8.618;2022-11-03T15:29:17;9.23;;;4.60;;
39778;SDS011;25454;49.878;8.618;2022-11-03T15:34:18;10.87;;;4.60;;
39778;SDS011;25454;49.878;8.618;2022-11-03T15:39:18;8.37;;;3.77;;
39778;SDS011;25454;49.878;8.618;2022-11-03T15:44:19;9.90;;;4.77;;
39778;SDS011;25454;49.878;8.618;2022-11-03T15:49:19;10.70;;;5.20;;
39778;SDS011;25454;49.878;8.618;2022-11-03T15:54:20;10.93;;;4.37;;
39778;SDS011;25454;49.878;8.618;2022-11-03T15:59:21;9.07;;;4.67;;
39778;SDS011;25454;49.878;8.618;2022-11-03T16:04:21;11.20;;;4.37;;
39778;SDS011;25454;49.878;8.618;2022-11-03T16:09:23;14.50;;;5.03;;
39778;SDS011;25454;49.878;8.618;2022-11-03T16:14:23;10.43;;;4.60;;
39778;SDS011;25454;49.878;8.618;2022-11-03T16:19:24;11.37;;;5.30;;
39778;SDS011;25454;49.878;8.618;2022-11-03T16:24:25;8.37;;;4.43;;
39778;SDS011;25454;49.878;8.618;2022-11-03T16:29:25;8.43;;;4.30;;
39778;SDS011;25454;49.878;8.618;2022-11-03T16:34:26;8.60;;;5.50;;
39778;SDS011;25454;49.878;8.618;2022-11-03T16:39:27;15.63;;;6.37;;
39778;SDS011;25454;49.878;8.618;2022-11-03T16:44:28;10.13;;;5.60;;
39778;SDS011;25454;49.878;8.618;2022-11-03T16:49:29;9.33;;;5.60;;
39778;SDS011;25454;49.878;8.618;2022-11-03T16:54:30;7.63;;;5.17;;
39778;SDS011;25454;49.878;8.618;2022-11-03T16:59:30;13.00;;;5.47;;
39778;SDS011;25454;49.878;8.618;2022-11-03T17:04:31;8.13;;;4.20;;
39778;SDS011;25454;49.878;8.618;2022-11-03T17:09:31;12.10;;;5.17;;
39778;SDS011;25454;49.878;8.618;2022-11-03T17:14:32;8.07;;;4.40;;
39778;SDS011;25454;49.878;8.618;2022-11-03T17:19:32;9.67;;;4.80;;
39778;SDS011;25454;49.878;8.618;2022-11-03T17:24:33;11.47;;;5.43;;
39778;SDS011;25454;49.878;8.618;2022-11-03T17:29:34;12.67;;;4.90;;
39778;SDS011;25454;49.878;8.618;2022-11-03T17:34:47;9.50;;;4.53;;
39778;SDS011;25454;49.878;8.618;2022-11-03T17:39:50;10.43;;;5.03;;
39778;SDS011;25454;49.878;8.618;2022-11-03T17:44:52;8.17;;;4.67;;
39778;SDS011;25454;49.878;8.618;2022-11-03T17:49:54;7.70;;;4.63;;
39778;SDS011;25454;49.878;8.618;2022-11-03T17:54:56;12.30;;;4.80;;
39778;SDS011;25454;49.878;8.618;2022-11-03T17:59:57;8.03;;;4.87;;
39778;SDS011;25454;49.878;8.618;2022-11-03T18:05:14;6.43;;;4.67;;
39778;SDS011;25454;49.878;8.618;2022-11-03T18:10:30;11.80;;;5.50;;
39778;SDS011;25454;49.878;8.618;2022-11-03T18:15:32;11.40;;;6.93;;
39778;SDS011;25454;49.878;8.618;2022-11-03T18:20:35;15.77;;;8.37;;
39778;SDS011;25454;49.878;8.618;2022-11-03T18:25:42;15.90;;;7.17;;
39778;SDS011;25454;49.878;8.618;2022-11-03T18:30:43;12.13;;;7.13;;
39778;SDS011;25454;49.878;8.618;2022-11-03T18:35:46;9.90;;;6.57;;
39778;SDS011;25454;49.878;8.618;2022-11-03T18:40:47;13.27;;;5.87;;
39778;SDS011;25454;49.878;8.618;2022-11-03T18:45:47;10.03;;;6.10;;
39778;SDS011;25454;49.878;8.618;2022-11-03T18:50:49;12.20;;;5.83;;
39778;SDS011;25454;49.878;8.618;2022-11-03T18:55:52;9.83;;;5.63;;
39778;SDS011;25454;49.878;8.618;2022-11-03T19:00:56;9.77;;;6.40;;
39778;SDS011;25454;49.878;8.618;2022-11-03T19:05:58;10.57;;;5.27;;
39778;SDS011;25454;49.878;8.618;2022-11-03T19:10:58;10.57;;;5.37;;
39778;SDS011;25454;49.878;8.618;2022-11-03T19:16:12;9.80;;;5.50;;
39778;SDS011;25454;49.878;8.618;2022-11-03T19:21:19;10.07;;;6.07;;
39778;SDS011;25454;49.878;8.618;2022-11-03T19:26:31;8.70;;;5.57;;
39778;SDS011;25454;49.878;8.618;2022-11-03T19:31:47;9.43;;;5.53;;
39778;SDS011;25454;49.878;8.618;2022-11-03T19:36:49;11.77;;;5.93;;
39778;SDS011;25454;49.878;8.618;2022-11-03T19:41:51;8.90;;;5.53;;
39778;SDS011;25454;49.878;8.618;2022-11-03T19:47:16;14.23;;;5.73;;
39778;SDS011;25454;49.878;8.618;2022-11-03T19:52:24;10.93;;;6.27;;
39778;SDS011;25454;49.878;8.618;2022-11-03T19:57:26;13.97;;;7.00;;
39778;SDS011;25454;49.878;8.618;2022-11-03T20:02:27;9.07;;;6.10;;
39778;SDS011;25454;49.878;8.618;2022-11-03T20:07:27;9.93;;;6.50;;
39778;SDS011;25454;49.878;8.618;2022-11-03T20:12:28;10.87;;;6.50;;
39778;SDS011;25454;49.878;8.618;2022-11-03T20:17:29;12.37;;;7.10;;
39778;SDS011;25454;49.878;8.618;2022-11-03T20:22:31;11.07;;;6.33;;
39778;SDS011;25454;49.878;8.618;2022-11-03T20:27:32;11.03;;;7.00;;
39778;SDS011;25454;49.878;8.618;2022-11-03T20:32:33;9.53;;;6.83;;
39778;SDS011;25454;49.878;8.618;2022-11-03T20:37:33;9.73;;;6.50;;
39778;SDS011;25454;49.878;8.618;2022-11-03T20:42:35;9.70;;;6.50;;
39778;SDS011;25454;49.878;8.618;2022-11-03T20:47:35;13.30;;;7.30;;
39778;SDS011;25454;49.878;8.618;2022-11-03T20:52:36;13.00;;;6.70;;
39778;SDS011;25454;49.878;8.618;2022-11-03T20:57:38;7.93;;;5.30;;
39778;SDS011;25454;49.878;8.618;2022-11-03T21:02:41;8.73;;;5.07;;
39778;SDS011;25454;49.878;8.618;2022-11-03T21:07:42;8.93;;;4.97;;
39778;SDS011;25454;49.878;8.618;2022-11-03T21:12:43;7.50;;;5.20;;
39778;SDS011;25454;49.878;8.618;2022-11-03T21:17:44;7.47;;;4.50;;
39778;SDS011;25454;49.878;8.618;2022-11-03T21:23:04;8.37;;;4.90;;
39778;SDS011;25454;49.878;8.618;2022-11-03T21:28:15;5.93;;;4.70;;
39778;SDS011;25454;49.878;8.618;2022-11-03T21:33:17;7.80;;;4.87;;
39778;SDS011;25454;49.878;8.618;2022-11-03T21:38:18;6.03;;;4.43;;
39778;SDS011;25454;49.878;8.618;2022-11-03T21:43:18;7.73;;;5.10;;
39778;SDS011;25454;49.878;8.618;2022-11-03T21:48:37;8.70;;;5.40;;
39778;SDS011;25454;49.878;8.618;2022-11-03T21:53:59;7.43;;;5.87;;
39778;SDS011;25454;49.878;8.618;2022-11-03T21:59:00;10.27;;;6.33;;
39778;SDS011;25454;49.878;8.618;2022-11-03T22:04:01;10.70;;;6.53;;
39778;SDS011;25454;49.878;8.618;2022-11-03T22:09:01;9.13;;;6.83;;
39778;SDS011;25454;49.878;8.618;2022-11-03T22:14:02;10.40;;;7.33;;
39778;SDS011;25454;49.878;8.618;2022-11-03T22:19:03;12.00;;;8.23;;
39778;SDS011;25454;49.878;8.618;2022-11-03T22:24:24;12.87;;;9.03;;
39778;SDS011;25454;49.878;8.618;2022-11-03T22:29:44;13.30;;;9.40;;
39778;SDS011;25454;49.878;8.618;2022-11-03T22:35:04;11.47;;;8.27;;
39778;SDS011;25454;49.878;8.618;2022-11-03T22:40:24;11.20;;;8.37;;
39778;SDS011;25454;49.878;8.618;2022-11-03T22:45:43;12.67;;;8.17;;
39778;SDS011;25454;49.878;8.618;2022-11-03T22:51:03;11.83;;;8.13;;
39778;SDS011;25454;49.878;8.618;2022-11-03T22:56:05;12.93;;;8.47;;
39778;SDS011;25454;49.878;8.618;2022-11-03T23:01:11;13.20;;;8.70;;
39778;SDS011;25454;49.878;8.618;2022-11-03T23:06:15;11.70;;;9.17;;
39778;SDS011;25454;49.878;8.618;2022-11-03T23:11:21;12.17;;;10.03;;
39778;SDS011;25454;49.878;8.618;2022-11-03T23:16:24;13.57;;;10.07;;
39778;SDS011;25454;49.878;8.618;2022-11-03T23:21:26;13.43;;;9.97;;
39778;SDS011;25454;49.878;8.618;2022-11-03T23:26:27;12.70;;;9.77;;
39778;SDS011;25454;49.878;8.618;2022-11-03T23:31:28;13.63;;;9.60;;
39778;SDS011;25454;49.878;8.618;2022-11-03T23:36:29;17.03;;;9.90;;
39778;SDS011;25454;49.878;8.618;2022-11-03T23:41:30;9.23;;;8.27;;
39778;SDS011;25454;49.878;8.618;2022-11-03T23:46:31;12.00;;;6.90;;
39778;SDS011;25454;49.878;8.618;2022-11-03T23:51:51;9.67;;;7.07;;
39778;SDS011;25454;49.878;8.618;2022-11-03T23:56:51;9.47;;;6.50;;
